Latest Weather Observations for West Roebuck

IDW60801

Issued at 11:32 pm WST Monday 25 May 2015 (issued every 30 minutes, with the page automatically refreshed every 10 minutes)

About weather observations | Map of weather stations | Latest weather observations for WA | Other Formats
Station Details ID: 003096 Name: WEST ROEBUCK Lat: -17.90 Lon: 122.31 Height: 32.0 m
Data from the previous 72 hours. | See also: Recent months for locations in Western Australia
Date/Time
WST
Temp
°C
App
Temp
°C
Dew
Point
Rel
Hum
%
Delta-T
°C
Wind Press
QNH
hPa
Press
MSL
hPa
Rain
since 9 am
mm
Dir
 
Spd
km/h
Gust
km/h
Spd
kts
Gust
kts
25/11:30pm 21.8 - - - - E 7 11 4 6 - - 0.0
25/11:00pm 23.0 - - - - E 7 9 4 5 - - 0.0
25/10:30pm 23.5 - - - - ESE 7 9 4 5 - - 0.0
25/10:00pm 23.2 - - - - S 7 9 4 5 - - 0.0
25/09:30pm 23.2 - - - - SSW 7 9 4 5 - - 0.0
25/09:00pm 24.1 - - - - SSE 9 11 5 6 - - 0.0
25/08:30pm 23.6 - - - - E 6 7 3 4 - - 0.0
25/08:00pm 24.0 - - - - SSE 9 13 5 7 - - 0.0
25/07:30pm 24.3 - - - - SSE 9 13 5 7 - - 0.0
25/07:00pm 24.2 - - - - S 7 9 4 5 - - 0.0
25/06:30pm 24.7 - - - - S 7 11 4 6 - - 0.0
25/06:00pm 25.7 - - - - WSW 6 7 3 4 - - 0.0
25/05:30pm 26.3 - - - - WSW 6 7 3 4 - - 0.0
25/05:00pm 26.8 - - - - W 9 13 5 7 - - 0.0
25/04:30pm 27.2 - - - - W 11 17 6 9 - - 0.0
25/04:00pm 27.7 - - - - WSW 11 17 6 9 - - 0.0
25/03:30pm 28.2 - - - - W 13 20 7 11 - - 0.0
25/03:00pm 28.6 - - - - W 13 19 7 10 - - 0.0
25/02:30pm 28.9 - - - - W 15 22 8 12 - - 0.0
25/02:00pm 29.3 - - - - W 15 24 8 13 - - 0.0
25/01:30pm 30.3 - - - - WNW 13 19 7 10 - - 0.0
25/01:00pm 32.0 - - - - N 13 24 7 13 - - 0.0
25/12:30pm 31.3 - - - - NE 11 20 6 11 - - 0.0
25/12:00pm 31.6 - - - - NNE 11 20 6 11 - - 0.0
25/11:30am 30.4 - - - - NE 11 22 6 12 - - 0.0
25/11:00am 30.6 - - - - ENE 11 19 6 10 - - 0.0
25/10:30am 29.8 - - - - ENE 11 19 6 10 - - 0.0
25/10:00am 27.4 - - - - ENE 11 17 6 9 - - 0.0
25/09:30am 26.9 - - - - ENE 9 15 5 8 - - 0.0
25/09:00am 25.5 - - - - E 9 13 5 7 - - 0.0
25/08:30am 24.8 - - - - E 9 17 5 9 - - 0.0
25/08:00am 23.9 - - - - E 7 15 4 8 - - 0.0
25/07:30am 22.4 - - - - ENE 7 11 4 6 - - 0.0
25/07:00am 21.4 - - - - E 9 11 5 6 - - 0.0
25/06:30am 21.2 - - - - ENE 9 11 5 6 - - 0.0
25/06:00am 22.0 - - - - ENE 6 9 3 5 - - 0.0
25/05:30am 22.8 - - - - ENE 13 20 7 11 - - 0.0
25/05:00am 22.1 - - - - ENE 11 17 6 9 - - 0.0
25/04:30am 21.8 - - - - ENE 9 11 5 6 - - 0.0
25/04:00am 21.7 - - - - NE 9 13 5 7 - - 0.0
25/03:30am 20.9 - - - - ENE 7 9 4 5 - - 0.0
25/03:00am 20.4 - - - - E 9 11 5 6 - - 0.0
25/02:30am 20.3 - - - - E 9 9 5 5 - - 0.0
25/02:00am 20.7 - - - - SE 7 7 4 4 - - 0.0
25/01:30am 21.0 - - - - S 9 9 5 5 - - 0.0
25/01:00am 20.6 - - - - CALM 0 0 0 0 - - 0.0
25/12:30am 20.8 - - - - CALM 0 0 0 0 - - 0.0
25/12:00am 21.0 - - - - CALM 0 0 0 0 - - 0.0
 
Date/Time
WST
Temp
°C
App
Temp
°C
Dew
Point
Rel
Hum
%
Delta-T
°C
Wind Press
QNH
hPa
Press
MSL
hPa
Rain
since 9 am
mm
Dir
 
Spd
km/h
Gust
km/h
Spd
kts
Gust
kts
24/11:30pm 21.9 - - - - SSW 6 7 3 4 - - 0.0
24/11:00pm 22.0 - - - - CALM 0 0 0 0 - - 0.0
24/10:30pm 22.1 - - - - CALM 0 0 0 0 - - 0.0
24/10:00pm 22.3 - - - - CALM 0 0 0 0 - - 0.0
24/09:30pm 22.5 - - - - NNE 6 7 3 4 - - 0.0
24/09:00pm 23.0 - - - - N 7 7 4 4 - - 0.0
24/08:30pm 23.0 - - - - NNW 9 9 5 5 - - 0.0
24/08:00pm 23.1 - - - - CALM 0 7 0 4 - - 0.0
24/07:30pm 23.9 - - - - S 7 9 4 5 - - 0.0
24/07:00pm 24.2 - - - - SW 7 9 4 5 - - 0.0
24/06:30pm 24.3 - - - - WSW 9 11 5 6 - - 0.0
24/06:00pm 24.3 - - - - NW 9 9 5 5 - - 0.0
24/05:30pm 25.4 - - - - NW 6 6 3 3 - - 0.0
24/05:00pm 26.2 - - - - W 9 11 5 6 - - 0.0
24/04:30pm 27.1 - - - - WSW 9 13 5 7 - - 0.0
24/04:00pm 27.8 - - - - SW 9 13 5 7 - - 0.0
24/03:30pm 28.4 - - - - SSW 9 13 5 7 - - 0.0
24/03:00pm 28.6 - - - - SW 9 13 5 7 - - 0.0
24/02:30pm 29.3 - - - - SW 13 17 7 9 - - 0.0
24/02:00pm 30.9 - - - - SW 13 19 7 10 - - 0.0
24/01:30pm 30.1 - - - - SW 15 19 8 10 - - 0.0
24/01:00pm 31.1 - - - - NNE 7 13 4 7 - - 0.0
24/12:30pm 31.4 - - - - ENE 6 13 3 7 - - 0.0
24/12:00pm 32.5 - - - - NNE 7 17 4 9 - - 0.0
24/11:30am 31.4 - - - - N 7 17 4 9 - - 0.0
24/11:00am 31.0 - - - - SE 7 17 4 9 - - 0.0
24/10:30am 29.5 - - - - E 9 13 5 7 - - 0.0
24/10:00am 29.3 - - - - ENE 7 11 4 6 - - 0.0
24/09:30am 28.5 - - - - ESE 9 15 5 8 - - 0.0
24/09:00am 28.1 - - - - E 9 13 5 7 - - 0.0
24/08:30am 26.1 - - - - ENE 7 11 4 6 - - 0.0
24/08:00am 24.0 - - - - ENE 7 11 4 6 - - 0.0
24/07:30am 23.5 - - - - ENE 9 13 5 7 - - 0.0
24/07:00am 23.4 - - - - NE 7 9 4 5 - - 0.0
24/06:30am 23.5 - - - - CALM 0 0 0 0 - - 0.0
24/06:00am 23.4 - - - - ENE 6 9 3 5 - - 0.0
24/05:30am 23.3 - - - - NE 9 13 5 7 - - 0.0
24/05:00am 23.1 - - - - CALM 0 0 0 0 - - 0.0
24/04:30am 23.1 - - - - CALM 0 0 0 0 - - 0.0
24/04:00am 23.1 - - - - CALM 0 0 0 0 - - 0.0
24/03:30am 23.1 - - - - CALM 0 0 0 0 - - 0.0
24/03:00am 23.2 - - - - ENE 6 7 3 4 - - 0.0
24/02:30am 23.0 - - - - NE 7 11 4 6 - - 0.0
24/02:00am 22.7 - - - - CALM 0 0 0 0 - - 0.0
24/01:30am 22.5 - - - - CALM 0 0 0 0 - - 0.0
24/01:00am 22.8 - - - - CALM 0 0 0 0 - - 0.0
24/12:30am 22.9 - - - - CALM 0 0 0 0 - - 0.0
24/12:00am 22.9 - - - - SW 7 9 4 5 - - 0.0
 
Date/Time
WST
Temp
°C
App
Temp
°C
Dew
Point
Rel
Hum
%
Delta-T
°C
Wind Press
QNH
hPa
Press
MSL
hPa
Rain
since 9 am
mm
Dir
 
Spd
km/h
Gust
km/h
Spd
kts
Gust
kts
23/11:30pm 22.7 - - - - CALM 0 0 0 0 - - 0.0
23/11:00pm 22.7 - - - - CALM 0 0 0 0 - - 0.0
23/10:30pm 23.2 - - - - CALM 0 0 0 0 - - 0.0
23/10:00pm 23.5 - - - - CALM 0 0 0 0 - - 0.0
23/09:30pm 23.6 - - - - CALM 0 0 0 0 - - 0.0
23/09:00pm 23.5 - - - - CALM 0 0 0 0 - - 0.0
23/08:30pm 23.4 - - - - CALM 0 0 0 0 - - 0.0
23/08:00pm 23.7 - - - - CALM 0 0 0 0 - - 0.0
23/07:30pm 23.7 - - - - CALM 0 0 0 0 - - 0.0
23/07:00pm 24.4 - - - - CALM 0 0 0 0 - - 0.0
23/06:30pm 24.9 - - - - SW 2 6 1 3 - - 0.0
23/06:00pm 25.7 - - - - WSW 4 7 2 4 - - 0.0
23/05:30pm 26.0 - - - - WSW 7 13 4 7 - - 0.0
23/05:00pm 26.6 - - - - W 13 19 7 10 - - 0.0
23/04:30pm 27.5 - - - - W 11 17 6 9 - - 0.0
23/04:00pm 28.3 - - - - WNW 15 19 8 10 - - 0.0
23/03:30pm 28.6 - - - - W 15 20 8 11 - - 0.0
23/03:00pm 30.9 - - - - WNW 17 24 9 13 - - 0.0
23/02:30pm 31.9 - - - - WNW 19 28 10 15 - - 0.0
23/02:00pm 30.6 - - - - W 19 24 10 13 - - 0.0
23/01:30pm 31.5 - - - - W 19 28 10 15 - - 0.0
23/01:00pm 30.3 - - - - WNW 19 28 10 15 - - 0.0
23/12:30pm 32.1 - - - - NW 17 28 9 15 - - 0.0
23/12:00pm 32.8 - - - - NW 19 28 10 15 - - 0.0
23/11:30am 31.5 - - - - WNW 15 22 8 12 - - 0.0
23/11:00am 32.9 - - - - NNW 9 20 5 11 - - 0.0
23/10:30am 31.7 - - - - NNW 15 20 8 11 - - 0.0
23/10:00am 29.7 - - - - NNW 9 15 5 8 - - 0.0
23/09:30am 29.0 - - - - NE 9 17 5 9 - - 0.0
23/09:00am 27.1 - - - - NE 9 13 5 7 - - 0.0
23/08:30am 25.8 - - - - NE 11 17 6 9 - - 0.0
23/08:00am 25.4 - - - - ENE 9 15 5 8 - - 0.0
23/07:30am 23.6 - - - - NE 11 17 6 9 - - 0.0
23/07:00am 21.0 - - - - NE 9 13 5 7 - - 0.0
23/06:30am 19.9 - - - - NE 11 15 6 8 - - 0.0
23/06:00am 18.8 - - - - NE 11 15 6 8 - - 0.0
23/05:30am 18.6 - - - - NE 11 13 6 7 - - 0.0
23/05:00am 18.4 - - - - ENE 11 13 6 7 - - 0.0
23/04:30am 18.8 - - - - NE 7 9 4 5 - - 0.0
23/04:00am 18.5 - - - - ENE 11 13 6 7 - - 0.0
23/03:30am 18.6 - - - - NNE 2 7 1 4 - - 0.0
23/03:00am 18.9 - - - - N 6 7 3 4 - - 0.0
23/02:30am 18.4 - - - - NNE 7 9 4 5 - - 0.0
23/02:00am 18.8 - - - - ENE 6 7 3 4 - - 0.0
23/01:30am 18.8 - - - - NW 2 6 1 3 - - 0.0
23/01:00am 20.0 - - - - NW 7 7 4 4 - - 0.0
23/12:30am 19.7 - - - - NW 9 9 5 5 - - 0.0
23/12:00am 19.4 - - - - NW 9 11 5 6 - - 0.0

Other Formats:

Comma delimited format used in spreadsheet applications
http://www.bom.gov.au/fwo/IDW60801/IDW60801.95204.axf

JavaScript Object Notation format (JSON) in row-major order
http://www.bom.gov.au/fwo/IDW60801/IDW60801.95204.json